»·PEaware :: VRD645 KPHX-KELP

VRD645 :: KPHX-KELP

FLIGHT INFORMATION

Flight Status: Arrived
Operator:
Virgin America
More flights by this operator :: More flights under this callsign
Pilot: Anonymous 17611 (17611)
Aircraft: AIRBUS A320
(A320)
More flights by this aircraft type
Origin: KPHX Phoenix Sky Harbor Intl
United States
Destination: KELP El Paso Intl
United States
More flights between these airports :: More routes between these airports
Route: KATMN5 PHASE TEEES MOLLY4
File this flight plan on PilotEdge
Remarks:
Altitude:
(Current/Filed)
32,000ft
Speed:
(Current/Filed)
433kts
Departed: 09-May-18 03:31 PM
Arrived: 09-May-18 04:22 PM
Distance/Time
Traveled:
300nm/0:51
Distance/Time
To Go:
Arrived

Flight Plot

Page will automatically refresh every two minutes.

Flight plan parsing failed; only flown route is shown


Map Options




Map Legend


Flown Route
Filed Route
Departure Airport
Arrival Airport
Navaid (VOR, NDB)
Fix

Horizontal Profiles

Position Reports

Time Latitude Longitude Heading Altitude Ground
Speed
09-May-18 15:05 33.434709 -112.014258 107 1125ft 0kts
09-May-18 15:06 33.434709 -112.014258 107 1125ft 0kts
09-May-18 15:07 33.434709 -112.014258 107 1125ft 0kts
09-May-18 15:08 33.434709 -112.014258 107 1125ft 0kts
09-May-18 15:09 33.434709 -112.014258 107 1125ft 0kts
09-May-18 15:10 33.434709 -112.014258 107 1125ft 0kts
09-May-18 15:11 33.434709 -112.014258 107 1125ft 0kts
09-May-18 15:12 33.434709 -112.014258 107 1125ft 0kts
09-May-18 15:13 33.434709 -112.014258 107 1125ft 0kts
09-May-18 15:14 33.434709 -112.014258 107 1125ft 0kts
09-May-18 15:15 33.434709 -112.014258 107 1125ft 0kts
09-May-18 15:16 33.434709 -112.014258 107 1125ft 0kts
09-May-18 15:17 33.434709 -112.014258 107 1125ft 0kts
09-May-18 15:18 33.434709 -112.014258 107 1125ft 0kts
09-May-18 15:19 33.434709 -112.014258 107 1125ft 0kts
09-May-18 15:20 33.434709 -112.014258 107 1125ft 0kts
09-May-18 15:21 33.434709 -112.014258 107 1125ft 0kts
09-May-18 15:22 33.434785 -112.014549 107 1125ft 2kts
09-May-18 15:23 33.435127 -112.014758 203 1125ft 1kts
09-May-18 15:24 33.435149 -112.014747 200 1125ft 0kts
09-May-18 15:25 33.435130 -112.014756 200 1125ft 0kts
09-May-18 15:26 33.433394 -112.015554 195 1124ft 0kts
09-May-18 15:27 33.432154 -112.009513 90 1128ft 29kts
09-May-18 15:28 33.432166 -112.001207 91 1126ft 29kts
09-May-18 15:29 33.432122 -111.993663 117 1125ft 0kts
09-May-18 15:30 33.431071 -111.994037 257 1125ft 24kts
09-May-18 15:31 33.429050 -112.032624 244 2293ft 168kts
09-May-18 15:32 33.404509 -112.090270 242 4403ft 237kts
09-May-18 15:33 33.354789 -112.144789 187 6554ft 292kts
09-May-18 15:34 33.278504 -112.126096 151 9527ft 306kts
09-May-18 15:35 33.231287 -112.042002 108 11280ft 360kts
09-May-18 15:36 33.199348 -111.921985 109 12972ft 394kts
09-May-18 15:37 33.165457 -111.797031 109 15065ft 407kts
09-May-18 15:38 33.129999 -111.667308 109 17015ft 420kts
09-May-18 15:39 33.093488 -111.534389 109 18893ft 429kts
09-May-18 15:40 33.045605 -111.404754 125 20708ft 431kts
09-May-18 15:41 32.981039 -111.287118 126 22451ft 435kts
09-May-18 15:42 32.914322 -111.165788 126 23891ft 444kts
09-May-18 15:43 32.847354 -111.044428 125 24982ft 458kts
09-May-18 15:44 32.776330 -110.916122 125 25953ft 473kts
09-May-18 15:45 32.727089 -110.773846 81 26951ft 486kts
09-May-18 15:46 32.746960 -110.621929 98 27923ft 493kts
09-May-18 15:47 32.716986 -110.462679 103 29085ft 495kts
09-May-18 15:48 32.686846 -110.306959 103 30355ft 493kts
09-May-18 15:49 32.656070 -110.148834 103 31574ft 491kts
09-May-18 15:50 32.625257 -109.991629 103 32017ft 488kts
09-May-18 15:51 32.594340 -109.835025 103 32019ft 490kts
09-May-18 15:52 32.563103 -109.677884 103 32019ft 490kts
09-May-18 15:53 32.531779 -109.521387 103 32017ft 490kts
09-May-18 15:54 32.500204 -109.364721 103 32020ft 490kts
09-May-18 15:55 32.469797 -109.214852 103 32016ft 489kts
09-May-18 15:56 32.437983 -109.059087 102 32018ft 489kts
09-May-18 15:57 32.406002 -108.903540 102 32059ft 487kts
09-May-18 15:58 32.373863 -108.748274 102 32146ft 487kts
09-May-18 15:59 32.341522 -108.593062 102 32161ft 487kts
09-May-18 16:00 32.309050 -108.438236 102 32162ft 487kts
09-May-18 16:01 32.277988 -108.291071 102 32162ft 487kts
09-May-18 16:02 32.256556 -108.134027 96 31823ft 485kts
09-May-18 16:03 32.238482 -107.976459 96 30817ft 487kts
09-May-18 16:04 32.220298 -107.819582 97 28800ft 483kts
09-May-18 16:05 32.202546 -107.666146 97 26463ft 473kts
09-May-18 16:06 32.185730 -107.521906 97 24233ft 463kts
09-May-18 16:07 32.168600 -107.376516 97 21911ft 451kts
09-May-18 16:08 32.151809 -107.235348 97 19587ft 439kts
09-May-18 16:09 32.134889 -107.095799 97 17215ft 426kts
09-May-18 16:10 32.116919 -106.960917 104 14866ft 412kts
09-May-18 16:11 32.088732 -106.833386 105 12095ft 383kts
09-May-18 16:12 32.062886 -106.722387 105 10993ft 313kts
09-May-18 16:13 32.039391 -106.626336 106 9683ft 300kts
09-May-18 16:14 32.017063 -106.535684 107 9034ft 267kts
09-May-18 16:15 31.991571 -106.458234 121 9029ft 252kts
09-May-18 16:16 31.955739 -106.385916 121 7449ft 267kts
09-May-18 16:17 31.924148 -106.322064 126 6480ft 192kts
09-May-18 16:18 31.884683 -106.302154 190 5627ft 149kts
09-May-18 16:19 31.852001 -106.329784 229 4859ft 149kts
09-May-18 16:20 31.825559 -106.366403 230 4076ft 149kts
09-May-18 16:21 31.807691 -106.390846 187 3928ft 52kts
09-May-18 16:22 31.803325 -106.392631 201 3927ft 11kts

Navigation Log

Ident Type
Flight plan parsing failed, navigation log unavailable